createdAt,value
2022-08-17T00:00:34.234Z,17.45
2022-08-17T00:03:27.240Z,12.65
2022-08-17T00:06:01.947Z,12.77
2022-08-17T00:08:51.377Z,14.00
2022-08-17T00:11:21.876Z,14.32
2022-08-17T00:13:56.098Z,13.48
2022-08-17T00:16:50.371Z,15.80
2022-08-17T00:19:22.963Z,12.15
2022-08-17T00:22:29.445Z,13.38
2022-08-17T00:24:39.986Z,15.38
2022-08-17T00:27:07.637Z,13.60
2022-08-17T00:29:34.821Z,11.95
2022-08-17T00:33:12.432Z,18.90
2022-08-17T00:34:50.741Z,19.00
2022-08-17T00:37:18.000Z,12.75
2022-08-17T00:39:45.142Z,14.35
2022-08-17T00:42:18.747Z,12.30
2022-08-17T00:44:46.226Z,13.85
2022-08-17T00:47:13.316Z,14.82
2022-08-17T00:49:40.575Z,13.15
2022-08-17T00:52:15.643Z,12.60
2022-08-17T00:54:46.991Z,12.80
2022-08-17T00:57:28.449Z,12.57
2022-08-17T01:00:07.280Z,11.60
2022-08-17T01:02:42.052Z,10.43
2022-08-17T01:05:19.002Z,13.48
2022-08-17T01:10:58.995Z,15.13
2022-08-17T01:13:07.031Z,13.00
2022-08-17T01:15:39.782Z,12.80
2022-08-17T01:18:09.559Z,11.57
2022-08-17T01:20:48.217Z,13.35
2022-08-17T01:23:20.636Z,16.83
2022-08-17T01:25:57.130Z,12.80
2022-08-17T01:28:52.258Z,12.70
2022-08-17T01:31:15.957Z,14.63
2022-08-17T01:33:43.380Z,14.45
2022-08-17T01:36:10.472Z,17.10
2022-08-17T01:38:38.536Z,12.82
2022-08-17T01:41:12.572Z,19.08
2022-08-17T01:43:52.103Z,13.43
2022-08-17T01:46:27.094Z,16.40
2022-08-17T01:48:56.352Z,15.07
2022-08-17T01:51:32.730Z,13.88
2022-08-17T01:56:51.314Z,12.85
2022-08-17T01:59:20.508Z,15.32
2022-08-17T02:01:48.366Z,13.95
2022-08-17T02:04:15.916Z,13.20
2022-08-17T02:06:45.337Z,15.27
2022-08-17T02:09:29.590Z,16.67
2022-08-17T02:11:59.614Z,17.42
2022-08-17T02:14:26.980Z,19.17
2022-08-17T02:16:54.566Z,13.93
2022-08-17T02:19:22.313Z,13.68
2022-08-17T02:21:51.673Z,18.45
2022-08-17T02:24:59.410Z,16.70
2022-08-17T02:27:16.788Z,12.80
2022-08-17T02:29:44.157Z,13.98
2022-08-17T02:32:28.215Z,14.18
2022-08-17T02:34:59.847Z,15.00
2022-08-17T02:37:28.488Z,17.52
2022-08-17T02:39:57.374Z,17.52
2022-08-17T02:42:35.665Z,13.95
2022-08-17T02:45:05.607Z,17.25
2022-08-17T02:47:33.086Z,14.38
2022-08-17T02:50:00.212Z,15.82
2022-08-17T02:52:43.101Z,13.30
2022-08-17T02:55:16.196Z,13.90
2022-08-17T02:57:43.942Z,16.00
2022-08-17T03:00:15.643Z,17.05
2022-08-17T03:02:44.737Z,15.55
2022-08-17T03:05:13.867Z,16.20
2022-08-17T03:07:40.974Z,17.95
2022-08-17T03:10:09.571Z,17.55
2022-08-17T03:12:39.084Z,20.25
2022-08-17T03:15:10.120Z,16.10
2022-08-17T03:17:37.881Z,12.98
2022-08-17T03:20:07.598Z,16.88
2022-08-17T03:22:41.018Z,16.13
2022-08-17T03:25:15.287Z,15.85
2022-08-17T03:27:48.232Z,17.02
2022-08-17T03:30:19.130Z,17.25
2022-08-17T03:32:51.994Z,13.93
2022-08-17T03:35:22.188Z,19.15
2022-08-17T03:37:52.414Z,18.15
2022-08-17T03:40:57.765Z,19.85
2022-08-17T03:43:17.291Z,15.88
2022-08-17T03:46:03.169Z,20.27
2022-08-17T03:48:49.476Z,18.83
2022-08-17T03:51:40.433Z,16.98
2022-08-17T03:54:27.429Z,17.05
2022-08-17T03:57:00.790Z,16.08
2022-08-17T03:59:28.509Z,15.85
2022-08-17T04:01:59.034Z,17.90
2022-08-17T04:04:27.748Z,18.73
2022-08-17T04:06:55.680Z,14.98
2022-08-17T04:09:23.042Z,20.27
2022-08-17T04:11:50.234Z,17.42
2022-08-17T04:14:17.340Z,15.82
2022-08-17T04:16:44.968Z,17.73
2022-08-17T04:19:12.162Z,18.70
2022-08-17T04:21:39.418Z,16.08
2022-08-17T04:24:06.963Z,15.95
2022-08-17T04:26:53.872Z,18.95
2022-08-17T04:29:22.193Z,18.35
2022-08-17T04:31:49.344Z,16.25
2022-08-17T04:34:19.785Z,15.95
2022-08-17T04:36:50.340Z,17.83
2022-08-17T04:39:17.754Z,17.13
2022-08-17T04:42:03.566Z,15.75
2022-08-17T04:44:37.362Z,18.17
2022-08-17T04:47:07.168Z,17.23
2022-08-17T04:49:40.205Z,21.05
2022-08-17T04:52:07.355Z,18.25
2022-08-17T04:54:39.502Z,20.20
2022-08-17T04:57:06.870Z,20.42
2022-08-17T04:59:33.963Z,21.13
2022-08-17T05:02:01.143Z,25.27
2022-08-17T05:04:35.149Z,20.90
2022-08-17T05:07:04.638Z,18.13
2022-08-17T05:09:32.364Z,17.05
2022-08-17T05:12:03.125Z,18.13
2022-08-17T05:14:33.574Z,15.25
2022-08-17T05:17:02.049Z,21.05
2022-08-17T05:19:35.149Z,18.83
2022-08-17T05:22:06.152Z,20.75
2022-08-17T05:24:40.785Z,15.88
2022-08-17T05:27:18.935Z,19.25
2022-08-17T05:29:46.466Z,16.55
2022-08-17T05:32:39.054Z,20.75
2022-08-17T05:35:01.694Z,20.17
2022-08-17T05:37:29.060Z,15.73
2022-08-17T05:39:56.307Z,19.88
2022-08-17T05:42:24.134Z,19.00
2022-08-17T05:44:51.450Z,16.65
2022-08-17T05:47:18.552Z,19.52
2022-08-17T05:49:48.865Z,17.65
2022-08-17T05:52:37.604Z,20.20
2022-08-17T05:55:19.650Z,18.52
2022-08-17T05:58:05.843Z,16.58
2022-08-17T06:01:07.080Z,16.38
2022-08-17T06:03:48.178Z,14.85
2022-08-17T06:06:40.790Z,16.10
2022-08-17T06:09:35.037Z,20.45
2022-08-17T06:12:27.092Z,20.23
2022-08-17T06:15:36.508Z,16.33
2022-08-17T06:18:08.249Z,15.75
2022-08-17T06:21:00.445Z,15.18
2022-08-17T06:23:34.934Z,13.65
2022-08-17T06:26:09.093Z,18.33
2022-08-17T06:28:53.070Z,12.90
2022-08-17T06:31:29.319Z,18.75
2022-08-17T06:33:58.663Z,19.45
2022-08-17T06:37:09.150Z,15.40
2022-08-17T06:39:58.995Z,15.60
2022-08-17T06:42:54.812Z,14.48
2022-08-17T06:45:31.621Z,13.73
2022-08-17T06:47:58.854Z,13.35
2022-08-17T06:50:36.009Z,13.57
2022-08-17T06:53:26.769Z,14.48
2022-08-17T06:56:08.947Z,14.00
2022-08-17T06:58:40.301Z,14.80
2022-08-17T07:01:26.847Z,13.50
2022-08-17T07:04:11.813Z,14.90
2022-08-17T07:06:45.807Z,12.68
2022-08-17T07:09:23.360Z,11.75
2022-08-17T07:12:05.309Z,15.25
2022-08-17T07:14:37.675Z,12.20
2022-08-17T07:17:14.244Z,11.75
2022-08-17T07:19:45.517Z,20.05
2022-08-17T07:22:57.468Z,15.18
2022-08-17T07:25:30.656Z,13.68
2022-08-17T07:28:05.314Z,14.23
2022-08-17T07:30:47.601Z,14.77
2022-08-17T07:33:22.668Z,13.07
2022-08-17T07:35:50.626Z,11.40
2022-08-17T07:38:30.105Z,12.45
2022-08-17T07:41:04.848Z,20.95
2022-08-17T07:43:46.909Z,14.48
2022-08-17T07:46:52.864Z,14.43
2022-08-17T07:49:22.662Z,13.40
2022-08-17T07:51:50.501Z,11.30
2022-08-17T07:54:22.571Z,14.15
2022-08-17T07:57:18.055Z,15.98
2022-08-17T08:00:01.269Z,12.95
2022-08-17T08:02:34.385Z,14.43
2022-08-17T08:05:13.018Z,12.75
2022-08-17T08:07:56.802Z,9.63
2022-08-17T08:10:35.731Z,14.75
2022-08-17T08:13:12.243Z,13.95
2022-08-17T08:15:54.327Z,13.95
2022-08-17T08:18:55.041Z,12.07
2022-08-17T08:21:26.017Z,12.40
2022-08-17T08:24:20.709Z,19.17
2022-08-17T08:26:59.919Z,14.05
2022-08-17T08:29:50.320Z,11.15
2022-08-17T08:32:46.524Z,11.02
2022-08-17T08:35:41.685Z,13.52
2022-08-17T08:38:54.253Z,16.58
2022-08-17T08:41:42.166Z,15.07
2022-08-17T08:44:12.902Z,12.52
2022-08-17T08:46:54.104Z,11.98
2022-08-17T08:50:02.620Z,12.77
2022-08-17T08:52:52.095Z,13.32
2022-08-17T08:55:34.396Z,14.30
2022-08-17T08:58:09.351Z,12.00
2022-08-17T09:01:00.327Z,14.63
2022-08-17T09:04:24.097Z,10.13
2022-08-17T09:07:08.506Z,13.15
2022-08-17T09:10:02.960Z,13.80
2022-08-17T09:12:56.297Z,12.05
2022-08-17T09:15:38.168Z,12.27
2022-08-17T09:19:01.660Z,13.43
2022-08-17T09:21:18.288Z,11.88
2022-08-17T09:23:59.790Z,10.43
2022-08-17T09:27:08.970Z,13.65
2022-08-17T09:29:47.937Z,14.07
2022-08-17T09:32:38.067Z,13.25
2022-08-17T09:35:36.567Z,11.75
2022-08-17T09:38:34.110Z,13.88
2022-08-17T09:41:20.402Z,11.68
2022-08-17T09:44:23.016Z,11.10
2022-08-17T09:46:57.053Z,10.45
2022-08-17T09:49:27.204Z,10.23
2022-08-17T09:52:01.161Z,10.95
2022-08-17T09:54:39.500Z,11.32
2022-08-17T09:57:37.858Z,13.07
2022-08-17T10:00:25.161Z,11.43
2022-08-17T10:03:28.274Z,10.20
2022-08-17T10:06:08.399Z,12.82
2022-08-17T10:09:08.285Z,15.20
2022-08-17T10:12:20.037Z,13.82
2022-08-17T10:14:57.662Z,10.30
2022-08-17T10:17:59.599Z,13.13
2022-08-17T10:20:46.556Z,11.45
2022-08-17T10:23:46.696Z,11.60
2022-08-17T10:26:26.908Z,14.85
2022-08-17T10:29:11.554Z,10.18
2022-08-17T10:31:42.735Z,11.98
2022-08-17T10:34:34.164Z,14.15
2022-08-17T10:37:30.561Z,10.65
2022-08-17T10:40:16.011Z,10.93
2022-08-17T10:42:47.061Z,8.88
2022-08-17T10:45:31.903Z,13.02
2022-08-17T10:48:22.195Z,10.32
2022-08-17T10:51:02.221Z,12.07
2022-08-17T10:53:32.355Z,8.55
2022-08-17T10:56:14.520Z,13.38
2022-08-17T10:58:50.590Z,10.02
2022-08-17T11:01:18.360Z,11.00
2022-08-17T11:03:58.027Z,10.68
2022-08-17T11:06:37.326Z,13.85
2022-08-17T11:09:41.904Z,9.68
2022-08-17T11:12:42.683Z,10.20
2022-08-17T11:15:45.138Z,9.63
2022-08-17T11:18:23.278Z,10.80
2022-08-17T11:21:29.902Z,11.13
2022-08-17T11:24:14.008Z,13.20
2022-08-17T11:26:47.576Z,10.15
2022-08-17T11:29:53.515Z,14.82
2022-08-17T11:32:34.113Z,10.13
2022-08-17T11:35:20.184Z,14.35
2022-08-17T11:38:03.027Z,13.43
2022-08-17T11:41:05.411Z,11.63
2022-08-17T11:44:10.479Z,13.23
2022-08-17T11:47:24.132Z,7.78
2022-08-17T11:50:40.655Z,18.67
2022-08-17T11:53:37.272Z,10.18
2022-08-17T11:56:09.553Z,8.65
2022-08-17T11:58:44.507Z,11.20
2022-08-17T12:01:32.660Z,12.80
2022-08-17T12:04:21.819Z,12.20
2022-08-17T12:06:56.870Z,13.50
2022-08-17T12:09:32.972Z,7.88
2022-08-17T12:12:14.458Z,9.88
2022-08-17T12:17:40.914Z,9.48
2022-08-17T12:20:20.086Z,13.63
2022-08-17T12:23:05.781Z,8.98
2022-08-17T12:25:49.381Z,11.18
2022-08-17T12:28:38.674Z,9.07
2022-08-17T12:31:21.775Z,7.28
2022-08-17T12:33:51.776Z,11.35
2022-08-17T12:36:28.251Z,10.20
2022-08-17T12:39:00.130Z,11.00
2022-08-17T12:41:44.880Z,9.38
2022-08-17T12:44:14.016Z,7.88
2022-08-17T12:47:00.517Z,10.63
2022-08-17T12:49:35.655Z,9.18
2022-08-17T12:52:14.209Z,9.50
2022-08-17T12:54:45.834Z,12.93
2022-08-17T12:57:25.250Z,10.25
2022-08-17T12:59:59.238Z,12.77
2022-08-17T13:02:37.804Z,8.32
2022-08-17T13:05:08.588Z,7.65
2022-08-17T13:07:46.508Z,9.90
2022-08-17T13:10:33.146Z,7.00
2022-08-17T13:13:21.402Z,9.60
2022-08-17T13:16:02.268Z,7.57
2022-08-17T13:18:40.832Z,9.40
2022-08-17T13:21:18.846Z,15.52
2022-08-17T13:24:04.639Z,10.60
2022-08-17T13:26:50.847Z,14.63
2022-08-17T13:29:29.140Z,18.15
2022-08-17T13:32:13.468Z,11.00
2022-08-17T13:35:12.591Z,8.88
2022-08-17T13:37:35.611Z,11.65
2022-08-17T13:40:11.863Z,15.88
2022-08-17T13:42:51.968Z,11.90
2022-08-17T13:45:39.328Z,8.48
2022-08-17T13:48:16.212Z,12.02
2022-08-17T13:50:52.156Z,10.40
2022-08-17T13:53:40.423Z,10.00
2022-08-17T13:56:36.964Z,11.95
2022-08-17T13:59:09.469Z,15.73
2022-08-17T14:01:42.006Z,10.68
2022-08-17T14:04:19.190Z,8.55
2022-08-17T14:06:52.426Z,9.52
2022-08-17T14:09:31.368Z,7.93
2022-08-17T14:12:02.742Z,8.45
2022-08-17T14:14:30.498Z,9.57
2022-08-17T14:16:58.433Z,7.93
2022-08-17T14:19:26.189Z,11.05
2022-08-17T14:21:58.831Z,11.50
2022-08-17T14:24:30.257Z,10.43
2022-08-17T14:26:59.184Z,11.90
2022-08-17T14:29:28.929Z,8.18
2022-08-17T14:31:57.078Z,9.30
2022-08-17T14:34:25.588Z,9.80
2022-08-17T14:36:52.762Z,9.77
2022-08-17T14:39:20.549Z,11.70
2022-08-17T14:41:48.042Z,12.90
2022-08-17T14:44:15.433Z,10.40
2022-08-17T14:46:45.489Z,8.25
2022-08-17T14:49:15.649Z,15.55
2022-08-17T14:51:44.337Z,14.45
2022-08-17T14:54:33.067Z,11.75
2022-08-17T14:57:23.723Z,9.48
2022-08-17T14:59:53.383Z,9.75
2022-08-17T15:02:30.202Z,12.25
2022-08-17T15:05:07.182Z,9.37
2022-08-17T15:07:34.504Z,8.48
2022-08-17T15:10:02.297Z,12.30
2022-08-17T15:12:33.257Z,7.40
2022-08-17T15:15:05.072Z,9.50
2022-08-17T15:17:43.768Z,9.93
2022-08-17T15:20:19.217Z,7.78
2022-08-17T15:22:49.809Z,11.73
2022-08-17T15:25:18.914Z,10.55
2022-08-17T15:27:46.376Z,11.25
2022-08-17T15:30:13.793Z,13.43
2022-08-17T15:32:50.856Z,11.05
2022-08-17T15:35:28.761Z,8.32
2022-08-17T15:38:04.656Z,11.20
2022-08-17T15:40:36.777Z,8.65
2022-08-17T15:43:17.217Z,16.98
2022-08-17T15:45:58.580Z,9.25
2022-08-17T15:48:41.273Z,13.13
2022-08-17T15:51:13.392Z,10.63
2022-08-17T15:53:43.281Z,11.38
2022-08-17T15:56:11.295Z,10.32
2022-08-17T15:58:38.518Z,9.77
2022-08-17T16:01:16.560Z,8.40
2022-08-17T16:04:03.877Z,12.20
2022-08-17T16:06:34.774Z,8.13
2022-08-17T16:09:02.022Z,9.82
2022-08-17T16:11:29.158Z,9.40
2022-08-17T16:13:56.452Z,8.82
2022-08-17T16:16:24.322Z,9.13
2022-08-17T16:18:53.663Z,8.57
2022-08-17T16:21:26.724Z,10.88
2022-08-17T16:24:03.412Z,12.45
2022-08-17T16:26:32.250Z,9.25
2022-08-17T16:29:01.569Z,12.80
2022-08-17T16:31:29.050Z,10.50
2022-08-17T16:34:16.413Z,9.57
2022-08-17T16:36:51.855Z,8.60
2022-08-17T16:39:29.118Z,12.13
2022-08-17T16:41:57.094Z,11.73
2022-08-17T16:44:27.494Z,6.60
2022-08-17T16:46:54.785Z,13.02
2022-08-17T16:49:24.472Z,7.35
2022-08-17T16:52:11.755Z,11.60
2022-08-17T16:54:43.734Z,8.30
2022-08-17T16:57:12.979Z,14.30
2022-08-17T16:59:42.704Z,10.45
2022-08-17T17:02:15.722Z,9.18
2022-08-17T17:04:50.936Z,7.95
2022-08-17T17:07:42.341Z,7.50
2022-08-17T17:10:15.684Z,8.75
2022-08-17T17:13:02.041Z,10.18
2022-08-17T17:15:44.790Z,6.95
2022-08-17T17:18:15.311Z,7.95
2022-08-17T17:20:54.050Z,8.73
2022-08-17T17:23:43.487Z,14.13
2022-08-17T17:26:29.102Z,10.80
2022-08-17T17:29:11.248Z,11.90
2022-08-17T17:31:54.863Z,10.02
2022-08-17T17:34:25.888Z,10.65
2022-08-17T17:36:58.368Z,9.13
2022-08-17T17:39:25.586Z,10.05
2022-08-17T17:41:57.408Z,9.32
2022-08-17T17:44:33.035Z,14.07
2022-08-17T17:47:02.578Z,9.20
2022-08-17T17:49:41.424Z,16.83
2022-08-17T17:52:32.412Z,12.02
2022-08-17T17:55:35.315Z,11.38
2022-08-17T17:58:32.095Z,14.25
2022-08-17T18:01:02.022Z,14.50
2022-08-17T18:03:51.794Z,11.77
2022-08-17T18:06:52.699Z,10.98
2022-08-17T18:09:49.893Z,9.10
2022-08-17T18:12:34.491Z,12.45
2022-08-17T18:15:18.565Z,11.77
2022-08-17T18:18:02.642Z,13.73
2022-08-17T18:20:43.182Z,11.25
2022-08-17T18:23:14.010Z,12.20
2022-08-17T18:25:45.180Z,27.38
2022-08-17T18:28:26.558Z,13.07
2022-08-17T18:31:12.428Z,12.68
2022-08-17T18:33:43.209Z,11.52
2022-08-17T18:36:12.081Z,10.90
2022-08-17T18:38:42.501Z,12.38
2022-08-17T18:41:21.422Z,15.77
2022-08-17T18:44:06.096Z,10.55
2022-08-17T18:46:37.789Z,12.07
2022-08-17T18:49:29.143Z,11.55
2022-08-17T18:52:14.320Z,11.52
2022-08-17T18:55:20.804Z,14.57
2022-08-17T18:57:57.330Z,13.32
2022-08-17T19:00:38.964Z,13.05
2022-08-17T19:03:23.928Z,11.70
2022-08-17T19:05:57.280Z,10.10
2022-08-17T19:08:30.729Z,13.70
2022-08-17T19:11:07.552Z,14.55
2022-08-17T19:13:39.817Z,19.02
2022-08-17T19:16:25.180Z,14.93
2022-08-17T19:19:16.108Z,11.15
2022-08-17T19:21:53.137Z,14.30
2022-08-17T19:24:23.123Z,14.27
2022-08-17T19:26:55.048Z,14.60
2022-08-17T19:29:56.943Z,17.45
2022-08-17T19:32:31.022Z,14.90
2022-08-17T19:34:58.605Z,25.55
2022-08-17T19:38:03.189Z,22.23
2022-08-17T19:41:13.719Z,23.40
2022-08-17T19:44:11.809Z,21.02
2022-08-17T19:46:49.973Z,16.20
2022-08-17T19:49:33.770Z,19.33
2022-08-17T19:52:29.508Z,20.15
2022-08-17T19:55:21.086Z,17.83
2022-08-17T19:57:56.050Z,19.20
2022-08-17T20:00:23.495Z,17.33
2022-08-17T20:03:09.135Z,14.00
2022-08-17T20:06:10.893Z,17.23
2022-08-17T20:08:38.231Z,23.17
2022-08-17T20:11:26.143Z,20.02
2022-08-17T20:14:05.467Z,22.20
2022-08-17T20:16:34.148Z,21.95
2022-08-17T20:19:24.054Z,19.60
2022-08-17T20:22:23.117Z,18.00
2022-08-17T20:25:13.678Z,18.80
2022-08-17T20:28:25.518Z,20.88
2022-08-17T20:30:52.962Z,20.83
2022-08-17T20:33:33.602Z,21.40
2022-08-17T20:36:22.396Z,26.15
2022-08-17T20:38:55.852Z,23.33
2022-08-17T20:41:28.425Z,18.67
2022-08-17T20:43:59.095Z,15.07
2022-08-17T20:46:38.365Z,16.73
2022-08-17T20:49:11.321Z,16.90
2022-08-17T20:54:46.996Z,20.38
2022-08-17T20:57:32.550Z,17.00
2022-08-17T21:00:39.731Z,18.85
2022-08-17T21:03:47.999Z,17.15
2022-08-17T21:06:21.217Z,22.25
2022-08-17T21:08:57.906Z,17.42
2022-08-17T21:11:57.246Z,17.67
2022-08-17T21:14:20.868Z,14.80
2022-08-17T21:17:59.280Z,19.17
2022-08-17T21:20:59.309Z,18.25
2022-08-17T21:23:46.772Z,14.88
2022-08-17T21:26:32.221Z,14.18
2022-08-17T21:29:31.730Z,16.30
2022-08-17T21:32:00.614Z,15.75
2022-08-17T21:34:37.445Z,17.15
2022-08-17T21:39:55.521Z,15.90
2022-08-17T21:42:29.786Z,16.08
2022-08-17T21:45:12.137Z,18.75
2022-08-17T21:47:44.078Z,14.05
2022-08-17T21:50:21.457Z,18.77
2022-08-17T21:52:50.112Z,13.43
2022-08-17T21:55:28.232Z,16.98
2022-08-17T21:58:13.518Z,17.02
2022-08-17T22:03:24.661Z,15.38
2022-08-17T22:05:51.992Z,18.92
2022-08-17T22:08:22.548Z,19.00
2022-08-17T22:10:51.476Z,16.58
2022-08-17T22:13:22.634Z,15.90
2022-08-17T22:16:28.489Z,14.45
2022-08-17T22:18:58.920Z,19.93
2022-08-17T22:21:26.798Z,21.95
2022-08-17T22:24:17.985Z,18.48
2022-08-17T22:27:10.949Z,18.70
2022-08-17T22:29:58.004Z,22.42
2022-08-17T22:32:41.401Z,22.65
2022-08-17T22:35:26.644Z,28.60
2022-08-17T22:37:54.221Z,22.73
2022-08-17T22:40:39.449Z,25.88
2022-08-17T22:43:12.622Z,21.13
2022-08-17T22:45:46.915Z,21.23
2022-08-17T22:48:22.382Z,23.17
2022-08-17T22:51:13.475Z,22.60
2022-08-17T22:54:16.018Z,20.48
2022-08-17T22:57:20.027Z,20.08
2022-08-17T22:59:53.866Z,19.52
2022-08-17T23:02:34.053Z,21.42
2022-08-17T23:05:10.779Z,25.73
2022-08-17T23:10:06.691Z,22.83
2022-08-17T23:12:38.889Z,25.15
2022-08-17T23:15:12.724Z,25.48
2022-08-17T23:17:39.896Z,21.25
2022-08-17T23:20:11.534Z,22.98
2022-08-17T23:22:51.318Z,22.73
2022-08-17T23:25:31.140Z,20.10
2022-08-17T23:28:01.655Z,20.17
2022-08-17T23:30:31.317Z,17.65
2022-08-17T23:33:05.392Z,21.10
2022-08-17T23:35:40.508Z,19.95
2022-08-17T23:38:12.256Z,20.33
2022-08-17T23:40:40.931Z,17.33
2022-08-17T23:43:17.372Z,19.30
2022-08-17T23:45:59.938Z,18.42
2022-08-17T23:48:34.987Z,18.80
2022-08-17T23:51:18.931Z,21.67
2022-08-17T23:53:50.382Z,18.20
2022-08-17T23:56:23.003Z,21.25
2022-08-17T23:58:50.222Z,19.40
